createdAt,value
2023-09-24T00:01:08.000Z,56.10
2023-09-24T00:03:36.123Z,56.00
2023-09-24T00:06:06.693Z,56.10
2023-09-24T00:08:36.080Z,56.00
2023-09-24T00:11:04.295Z,56.10
2023-09-24T00:13:35.108Z,56.10
2023-09-24T00:16:06.083Z,56.00
2023-09-24T00:18:34.472Z,56.10
2023-09-24T00:21:02.765Z,56.10
2023-09-24T00:23:30.869Z,56.10
2023-09-24T00:26:00.224Z,56.00
2023-09-24T00:28:28.177Z,56.10
2023-09-24T00:30:56.800Z,56.00
2023-09-24T00:33:25.570Z,56.10
2023-09-24T00:35:54.527Z,56.00
2023-09-24T00:38:22.652Z,56.00
2023-09-24T00:40:50.593Z,56.10
2023-09-24T00:43:31.336Z,56.10
2023-09-24T00:46:01.170Z,56.10
2023-09-24T00:48:32.219Z,56.00
2023-09-24T00:51:02.593Z,56.10
2023-09-24T00:53:31.966Z,56.10
2023-09-24T00:56:00.497Z,56.10
2023-09-24T00:58:32.231Z,56.30
2023-09-24T01:01:00.370Z,56.00
2023-09-24T01:03:29.369Z,56.10
2023-09-24T01:05:57.759Z,56.00
2023-09-24T01:08:27.094Z,56.00
2023-09-24T01:10:58.021Z,56.10
2023-09-24T01:13:27.405Z,55.90
2023-09-24T01:15:56.859Z,56.00
2023-09-24T01:18:24.941Z,56.10
2023-09-24T01:20:52.952Z,56.00
2023-09-24T01:23:22.430Z,56.00
2023-09-24T01:25:50.403Z,56.00
2023-09-24T01:28:18.375Z,56.00
2023-09-24T01:30:46.333Z,55.90
2023-09-24T01:33:14.668Z,56.10
2023-09-24T01:35:43.570Z,55.90
2023-09-24T01:38:13.023Z,56.00
2023-09-24T01:40:42.307Z,56.00
2023-09-24T01:43:10.913Z,55.90
2023-09-24T01:45:40.804Z,55.90
2023-09-24T01:48:09.489Z,55.90
2023-09-24T01:50:38.259Z,55.90
2023-09-24T01:53:07.444Z,55.90
2023-09-24T01:55:37.501Z,55.90
2023-09-24T01:58:07.031Z,55.90
2023-09-24T02:00:35.938Z,55.90
2023-09-24T02:03:07.284Z,55.90
2023-09-24T02:05:36.692Z,56.00
2023-09-24T02:08:11.889Z,55.90
2023-09-24T02:10:42.338Z,55.90
2023-09-24T02:13:12.493Z,55.90
2023-09-24T02:15:41.082Z,55.90
2023-09-24T02:18:10.894Z,55.90
2023-09-24T02:20:40.205Z,55.90
2023-09-24T02:23:08.279Z,56.00
2023-09-24T02:25:38.196Z,55.90
2023-09-24T02:28:07.105Z,55.90
2023-09-24T02:30:38.084Z,55.90
2023-09-24T02:33:06.492Z,55.90
2023-09-24T02:35:34.527Z,55.90
2023-09-24T02:38:02.778Z,55.90
2023-09-24T02:40:31.517Z,55.90
2023-09-24T02:43:01.247Z,55.90
2023-09-24T02:45:31.301Z,55.90
2023-09-24T02:48:00.725Z,55.90
2023-09-24T02:50:30.807Z,55.90
2023-09-24T02:53:01.129Z,55.90
2023-09-24T02:55:30.743Z,55.90
2023-09-24T02:57:59.135Z,55.90
2023-09-24T03:00:34.844Z,55.90
2023-09-24T03:03:07.373Z,55.90
2023-09-24T03:05:36.028Z,55.90
2023-09-24T03:08:05.164Z,55.90
2023-09-24T03:10:34.792Z,55.80
2023-09-24T03:13:03.702Z,55.80
2023-09-24T03:15:32.149Z,55.90
2023-09-24T03:18:01.076Z,55.90
2023-09-24T03:20:31.167Z,55.80
2023-09-24T03:23:04.029Z,55.90
2023-09-24T03:25:33.535Z,55.80
2023-09-24T03:28:02.694Z,55.80
2023-09-24T03:30:31.505Z,55.80
2023-09-24T03:33:00.560Z,55.80
2023-09-24T03:35:30.964Z,55.80
2023-09-24T03:37:59.513Z,55.80
2023-09-24T03:40:28.825Z,55.80
2023-09-24T03:42:57.134Z,55.80
2023-09-24T03:45:26.202Z,55.80
2023-09-24T03:47:54.908Z,55.80
2023-09-24T03:50:23.034Z,55.80
2023-09-24T03:52:53.238Z,55.80
2023-09-24T03:55:21.729Z,55.80
2023-09-24T03:57:50.479Z,55.90
2023-09-24T04:00:20.082Z,55.80
2023-09-24T04:02:50.762Z,55.80
2023-09-24T04:05:22.761Z,55.80
2023-09-24T04:07:53.681Z,55.80
2023-09-24T04:10:23.482Z,55.80
2023-09-24T04:12:52.897Z,55.70
2023-09-24T04:15:23.763Z,55.80
2023-09-24T04:17:52.454Z,55.70
2023-09-24T04:20:21.816Z,55.90
2023-09-24T04:22:52.000Z,55.80
2023-09-24T04:25:22.486Z,55.70
2023-09-24T04:27:50.922Z,55.80
2023-09-24T04:30:19.081Z,55.80
2023-09-24T04:32:49.533Z,55.70
2023-09-24T04:35:20.691Z,55.80
2023-09-24T04:37:49.068Z,55.80
2023-09-24T04:40:19.141Z,55.70
2023-09-24T04:42:47.569Z,55.70
2023-09-24T04:45:16.765Z,55.80
2023-09-24T04:47:45.319Z,55.80
2023-09-24T04:50:14.994Z,56.50
2023-09-24T04:52:46.618Z,55.70
2023-09-24T04:55:15.129Z,55.70
2023-09-24T04:57:45.538Z,55.70
2023-09-24T05:00:15.949Z,55.70
2023-09-24T05:02:44.295Z,55.70
2023-09-24T05:05:12.942Z,55.70
2023-09-24T05:07:41.578Z,56.30
2023-09-24T05:10:10.606Z,55.70
2023-09-24T05:12:38.636Z,55.70
2023-09-24T05:15:09.039Z,55.70
2023-09-24T05:17:37.197Z,55.70
2023-09-24T05:20:06.846Z,55.70
2023-09-24T05:22:34.867Z,55.70
2023-09-24T05:25:03.112Z,55.70
2023-09-24T05:27:33.543Z,55.70
2023-09-24T05:30:02.049Z,55.70
2023-09-24T05:32:31.708Z,55.70
2023-09-24T05:35:00.197Z,56.30
2023-09-24T05:37:28.167Z,55.70
2023-09-24T05:39:57.922Z,55.70
2023-09-24T05:42:25.838Z,55.70
2023-09-24T05:44:53.841Z,55.60
2023-09-24T05:47:21.789Z,55.60
2023-09-24T05:49:52.295Z,55.60
2023-09-24T05:52:20.312Z,55.70
2023-09-24T05:54:48.206Z,55.60
2023-09-24T05:57:16.578Z,55.60
2023-09-24T05:59:44.589Z,55.60
2023-09-24T06:02:12.667Z,55.60
2023-09-24T06:04:40.569Z,55.60
2023-09-24T06:07:09.843Z,55.60
2023-09-24T06:09:37.746Z,55.60
2023-09-24T06:12:06.155Z,55.60
2023-09-24T06:14:34.872Z,55.60
2023-09-24T06:17:04.149Z,55.60
2023-09-24T06:19:33.081Z,55.60
2023-09-24T06:22:01.006Z,55.60
2023-09-24T06:24:30.815Z,55.60
2023-09-24T06:26:58.796Z,55.60
2023-09-24T06:29:27.248Z,55.60
2023-09-24T06:31:55.206Z,55.60
2023-09-24T06:34:23.232Z,55.60
2023-09-24T06:36:51.142Z,55.60
2023-09-24T06:39:19.118Z,55.60
2023-09-24T06:41:48.448Z,55.60
2023-09-24T06:44:23.367Z,55.60
2023-09-24T06:46:51.712Z,55.50
2023-09-24T06:49:19.686Z,55.60
2023-09-24T06:51:47.812Z,55.50
2023-09-24T06:54:15.805Z,55.50
2023-09-24T06:56:44.204Z,55.50
2023-09-24T06:59:13.538Z,55.50
2023-09-24T07:01:41.520Z,55.50
2023-09-24T07:04:09.573Z,55.60
2023-09-24T07:06:37.735Z,55.60
2023-09-24T07:09:07.119Z,55.50
2023-09-24T07:11:35.809Z,55.50
2023-09-24T07:14:05.212Z,55.60
2023-09-24T07:16:35.628Z,55.60
2023-09-24T07:19:03.594Z,55.60
2023-09-24T07:21:36.595Z,55.60
2023-09-24T07:24:06.935Z,55.60
2023-09-24T07:26:35.115Z,55.60
2023-09-24T07:29:03.086Z,55.60
2023-09-24T07:31:32.154Z,55.60
2023-09-24T07:34:03.182Z,55.60
2023-09-24T07:36:38.017Z,55.60
2023-09-24T07:39:10.822Z,55.60
2023-09-24T07:41:39.132Z,55.60
2023-09-24T07:44:07.792Z,55.60
2023-09-24T07:46:35.832Z,55.60
2023-09-24T07:49:07.337Z,55.60
2023-09-24T07:51:35.738Z,55.60
2023-09-24T07:54:03.751Z,55.70
2023-09-24T07:56:32.276Z,55.60
2023-09-24T07:59:00.280Z,55.60
2023-09-24T08:01:28.313Z,55.60
2023-09-24T08:03:56.683Z,55.60
2023-09-24T08:06:29.063Z,55.60
2023-09-24T08:09:05.967Z,55.60
2023-09-24T08:11:44.998Z,55.60
2023-09-24T08:14:12.925Z,55.60
2023-09-24T08:16:41.120Z,55.60
2023-09-24T08:19:09.115Z,55.60
2023-09-24T08:21:38.371Z,55.60
2023-09-24T08:24:06.920Z,55.60
2023-09-24T08:26:35.219Z,55.60
2023-09-24T08:29:07.147Z,55.60
2023-09-24T08:31:35.708Z,55.60
2023-09-24T08:34:04.548Z,55.60
2023-09-24T08:36:32.495Z,55.70
2023-09-24T08:39:06.921Z,55.60
2023-09-24T08:41:35.703Z,55.60
2023-09-24T08:44:07.208Z,55.60
2023-09-24T08:46:36.518Z,55.60
2023-09-24T08:49:06.177Z,55.80
2023-09-24T08:51:34.937Z,55.60
2023-09-24T08:54:06.171Z,55.60
2023-09-24T08:56:34.454Z,55.70
2023-09-24T08:59:03.375Z,55.60
2023-09-24T09:01:31.329Z,55.60
2023-09-24T09:04:00.606Z,55.70
2023-09-24T09:06:32.902Z,55.70
2023-09-24T09:09:01.705Z,55.70
2023-09-24T09:11:41.424Z,55.70
2023-09-24T09:14:10.327Z,55.60
2023-09-24T09:16:59.139Z,55.70
2023-09-24T09:19:28.570Z,55.60
2023-09-24T09:21:56.680Z,55.70
2023-09-24T09:24:25.834Z,55.70
2023-09-24T09:26:57.410Z,55.60
2023-09-24T09:29:26.076Z,55.70
2023-09-24T09:31:55.495Z,55.70
2023-09-24T09:34:23.820Z,55.60
2023-09-24T09:36:51.779Z,55.70
2023-09-24T09:39:19.801Z,55.60
2023-09-24T09:41:49.967Z,55.70
2023-09-24T09:44:26.904Z,55.60
2023-09-24T09:47:01.444Z,55.70
2023-09-24T09:49:33.644Z,55.70
2023-09-24T09:52:03.355Z,55.70
2023-09-24T09:54:36.640Z,55.70
2023-09-24T09:57:06.278Z,55.70
2023-09-24T09:59:37.033Z,55.60
2023-09-24T10:02:06.210Z,55.60
2023-09-24T10:04:37.003Z,55.60
2023-09-24T10:07:06.516Z,55.70
2023-09-24T10:09:37.393Z,55.60
2023-09-24T10:12:08.561Z,55.60
2023-09-24T10:14:39.797Z,55.60
2023-09-24T10:17:31.895Z,55.60
2023-09-24T10:20:07.626Z,55.70
2023-09-24T10:22:38.610Z,55.60
2023-09-24T10:25:34.730Z,55.70
2023-09-24T10:28:09.038Z,55.70
2023-09-24T10:31:07.761Z,55.70
2023-09-24T10:33:56.905Z,55.70
2023-09-24T10:36:29.422Z,55.70
2023-09-24T10:39:15.524Z,55.70
2023-09-24T10:42:17.123Z,55.70
2023-09-24T10:44:45.636Z,55.70
2023-09-24T10:47:29.020Z,55.70
2023-09-24T10:50:04.036Z,55.70
2023-09-24T10:52:47.133Z,55.70
2023-09-24T10:55:15.185Z,55.70
2023-09-24T10:57:46.086Z,55.70
2023-09-24T11:00:18.575Z,55.70
2023-09-24T11:02:48.181Z,55.70
2023-09-24T11:05:16.125Z,55.70
2023-09-24T11:07:44.059Z,55.70
2023-09-24T11:10:12.021Z,55.70
2023-09-24T11:12:48.114Z,55.70
2023-09-24T11:15:16.776Z,55.70
2023-09-24T11:17:48.227Z,55.70
2023-09-24T11:20:18.782Z,55.70
2023-09-24T11:22:46.890Z,55.70
2023-09-24T11:25:17.193Z,55.70
2023-09-24T11:27:49.462Z,55.70
2023-09-24T11:30:18.576Z,55.70
2023-09-24T11:32:49.106Z,55.70
2023-09-24T11:35:19.246Z,55.70
2023-09-24T11:38:00.213Z,55.70
2023-09-24T11:40:30.583Z,55.70
2023-09-24T11:42:59.941Z,55.80
2023-09-24T11:45:43.537Z,55.70
2023-09-24T11:48:14.562Z,55.80
2023-09-24T11:50:45.541Z,55.80
2023-09-24T11:53:14.167Z,55.70
2023-09-24T11:55:43.201Z,55.70
2023-09-24T11:58:12.575Z,55.60
2023-09-24T12:00:41.299Z,55.70
2023-09-24T12:03:09.481Z,55.80
2023-09-24T12:05:39.100Z,55.70
2023-09-24T12:08:08.597Z,55.70
2023-09-24T12:10:43.412Z,55.60
2023-09-24T12:13:12.295Z,55.60
2023-09-24T12:15:40.324Z,55.60
2023-09-24T12:18:09.984Z,55.70
2023-09-24T12:20:41.125Z,55.60
2023-09-24T12:23:10.148Z,55.60
2023-09-24T12:25:39.563Z,55.60
2023-09-24T12:28:10.064Z,55.60
2023-09-24T12:30:39.050Z,55.60
2023-09-24T12:33:11.537Z,55.70
2023-09-24T12:35:43.451Z,55.70
2023-09-24T12:38:11.935Z,55.70
2023-09-24T12:40:40.194Z,55.60
2023-09-24T12:43:08.450Z,55.60
2023-09-24T12:45:36.492Z,55.70
2023-09-24T12:48:04.908Z,55.60
2023-09-24T12:50:34.027Z,55.70
2023-09-24T12:53:03.457Z,55.60
2023-09-24T12:55:31.437Z,56.30
2023-09-24T12:57:59.369Z,55.60
2023-09-24T13:00:27.324Z,55.60
2023-09-24T13:02:55.420Z,55.60
2023-09-24T13:05:24.611Z,55.60
2023-09-24T13:07:52.562Z,55.60
2023-09-24T13:10:21.815Z,55.60
2023-09-24T13:12:49.712Z,55.60
2023-09-24T13:15:18.740Z,55.70
2023-09-24T13:17:46.749Z,55.70
2023-09-24T13:20:15.609Z,55.70
2023-09-24T13:22:43.560Z,55.60
2023-09-24T13:25:13.751Z,55.70
2023-09-24T13:27:43.294Z,55.60
2023-09-24T13:30:11.651Z,55.60
2023-09-24T13:32:40.003Z,55.70
2023-09-24T13:35:09.046Z,55.60
2023-09-24T13:37:38.868Z,55.60
2023-09-24T13:40:22.853Z,55.60
2023-09-24T13:43:01.185Z,55.70
2023-09-24T13:45:29.198Z,55.60
2023-09-24T13:47:57.695Z,55.70
2023-09-24T13:50:25.796Z,55.70
2023-09-24T13:52:53.735Z,55.60
2023-09-24T13:55:21.700Z,55.70
2023-09-24T13:57:49.658Z,55.60
2023-09-24T14:00:19.770Z,55.60
2023-09-24T14:02:48.424Z,55.60
2023-09-24T14:05:16.470Z,55.60
2023-09-24T14:07:44.418Z,55.60
2023-09-24T14:10:29.825Z,55.70
2023-09-24T14:12:57.734Z,55.70
2023-09-24T14:15:27.032Z,55.80
2023-09-24T14:18:11.642Z,55.70
2023-09-24T14:20:42.228Z,55.70
2023-09-24T14:23:10.175Z,55.70
2023-09-24T14:25:39.612Z,55.60
2023-09-24T14:28:07.799Z,55.70
2023-09-24T14:30:39.064Z,55.70
2023-09-24T14:33:07.765Z,55.70
2023-09-24T14:35:36.680Z,55.60
2023-09-24T14:38:05.367Z,55.70
2023-09-24T14:40:36.440Z,55.70
2023-09-24T14:43:05.410Z,55.70
2023-09-24T14:45:33.408Z,55.70
2023-09-24T14:48:03.148Z,55.70
2023-09-24T14:50:31.401Z,55.80
2023-09-24T14:52:59.335Z,55.70
2023-09-24T14:55:27.281Z,55.70
2023-09-24T14:57:57.966Z,55.80
2023-09-24T15:00:26.600Z,55.70
2023-09-24T15:02:56.759Z,55.80
2023-09-24T15:05:26.692Z,55.80
2023-09-24T15:07:55.674Z,55.70
2023-09-24T15:10:23.759Z,55.70
2023-09-24T15:12:53.940Z,55.70
2023-09-24T15:15:21.987Z,55.70
2023-09-24T15:17:50.157Z,55.70
2023-09-24T15:20:18.616Z,55.70
2023-09-24T15:22:47.896Z,55.70
2023-09-24T15:25:15.831Z,55.70
2023-09-24T15:27:43.759Z,55.70
2023-09-24T15:30:12.218Z,55.70
2023-09-24T15:32:40.137Z,55.70
2023-09-24T15:35:08.846Z,55.80
2023-09-24T15:37:36.783Z,55.80
2023-09-24T15:40:07.052Z,55.70
2023-09-24T15:42:36.217Z,55.70
2023-09-24T15:45:08.297Z,55.80
2023-09-24T15:47:38.667Z,55.80
2023-09-24T15:50:08.482Z,55.80
2023-09-24T15:52:37.495Z,55.80
2023-09-24T15:55:07.692Z,55.70
2023-09-24T15:57:36.972Z,55.80
2023-09-24T16:00:06.735Z,55.80
2023-09-24T16:02:34.688Z,55.80
2023-09-24T16:05:03.455Z,55.80
2023-09-24T16:07:31.386Z,55.80
2023-09-24T16:09:59.283Z,55.80
2023-09-24T16:12:28.682Z,55.80
2023-09-24T16:14:56.581Z,55.80
2023-09-24T16:17:24.552Z,55.80
2023-09-24T16:19:52.466Z,55.80
2023-09-24T16:22:20.417Z,55.80
2023-09-24T16:24:48.350Z,55.80
2023-09-24T16:27:16.361Z,55.80
2023-09-24T16:29:45.731Z,55.70
2023-09-24T16:32:13.686Z,55.80
2023-09-24T16:34:41.764Z,55.80
2023-09-24T16:37:09.658Z,55.70
2023-09-24T16:39:37.647Z,55.70
2023-09-24T16:42:06.085Z,55.70
2023-09-24T16:44:34.163Z,55.80
2023-09-24T16:47:06.460Z,55.70
2023-09-24T16:49:34.464Z,55.70
2023-09-24T16:52:02.442Z,55.70
2023-09-24T16:54:30.369Z,55.80
2023-09-24T16:56:59.166Z,55.70
2023-09-24T16:59:29.797Z,55.70
2023-09-24T17:02:00.367Z,55.70
2023-09-24T17:04:30.367Z,55.70
2023-09-24T17:06:58.476Z,55.70
2023-09-24T17:09:26.641Z,55.80
2023-09-24T17:11:55.334Z,55.70
2023-09-24T17:14:23.797Z,55.70
2023-09-24T17:16:54.002Z,55.80
2023-09-24T17:19:23.650Z,55.80
2023-09-24T17:21:53.210Z,55.70
2023-09-24T17:24:24.522Z,55.70
2023-09-24T17:26:52.649Z,55.70
2023-09-24T17:29:21.545Z,55.80
2023-09-24T17:31:49.727Z,55.70
2023-09-24T17:34:18.625Z,55.70
2023-09-24T17:36:46.551Z,55.70
2023-09-24T17:39:15.803Z,55.90
2023-09-24T17:41:44.665Z,55.70
2023-09-24T17:44:14.076Z,55.70
2023-09-24T17:46:41.989Z,55.70
2023-09-24T17:49:09.932Z,55.70
2023-09-24T17:51:38.616Z,55.70
2023-09-24T17:54:06.641Z,55.70
2023-09-24T17:56:35.902Z,55.60
2023-09-24T17:59:03.994Z,55.70
2023-09-24T18:01:31.949Z,55.70
2023-09-24T18:04:00.025Z,55.60
2023-09-24T18:06:28.065Z,55.60
2023-09-24T18:08:56.051Z,55.70
2023-09-24T18:11:23.976Z,56.00
2023-09-24T18:13:54.415Z,55.70
2023-09-24T18:16:25.099Z,55.70
2023-09-24T18:18:53.137Z,55.70
2023-09-24T18:21:21.075Z,55.60
2023-09-24T18:23:49.347Z,55.70
2023-09-24T18:26:17.764Z,56.40
2023-09-24T18:28:46.073Z,55.60
2023-09-24T18:31:15.709Z,55.60
2023-09-24T18:33:43.855Z,55.70
2023-09-24T18:36:12.227Z,55.70
2023-09-24T18:38:40.200Z,55.60
2023-09-24T18:41:08.159Z,55.70
2023-09-24T18:43:36.052Z,55.60
2023-09-24T18:46:06.087Z,55.70
2023-09-24T18:48:37.186Z,55.60
2023-09-24T18:51:13.333Z,55.70
2023-09-24T18:53:41.302Z,55.70
2023-09-24T18:56:09.332Z,55.60
2023-09-24T18:58:37.283Z,55.70
2023-09-24T19:01:09.344Z,55.60
2023-09-24T19:03:38.923Z,55.60
2023-09-24T19:06:08.486Z,55.70
2023-09-24T19:08:37.577Z,55.60
2023-09-24T19:11:05.736Z,55.60
2023-09-24T19:13:33.670Z,56.30
2023-09-24T19:16:03.963Z,55.60
2023-09-24T19:18:33.100Z,55.60
2023-09-24T19:21:02.900Z,55.70
2023-09-24T19:23:32.277Z,55.60
2023-09-24T19:26:10.870Z,55.60
2023-09-24T19:28:39.286Z,55.60
2023-09-24T19:31:11.120Z,55.60
2023-09-24T19:33:39.899Z,55.60
2023-09-24T19:36:10.315Z,55.60
2023-09-24T19:38:38.251Z,55.60
2023-09-24T19:41:07.128Z,55.60
2023-09-24T19:43:35.094Z,55.60
2023-09-24T19:46:03.499Z,55.60
2023-09-24T19:48:32.393Z,55.60
2023-09-24T19:51:00.583Z,55.60
2023-09-24T19:53:29.901Z,55.60
2023-09-24T19:55:57.855Z,55.60
2023-09-24T19:58:26.587Z,55.60
2023-09-24T20:00:55.507Z,55.60
2023-09-24T20:03:24.176Z,55.60
2023-09-24T20:05:52.429Z,55.60
2023-09-24T20:08:22.978Z,55.60
2023-09-24T20:10:52.320Z,55.60
2023-09-24T20:13:20.281Z,55.60
2023-09-24T20:15:49.156Z,55.60
2023-09-24T20:18:17.296Z,55.60
2023-09-24T20:20:47.489Z,55.60
2023-09-24T20:23:15.445Z,55.60
2023-09-24T20:25:47.411Z,55.60
2023-09-24T20:28:16.643Z,55.60
2023-09-24T20:30:46.176Z,55.60
2023-09-24T20:33:27.374Z,55.60
2023-09-24T20:35:58.246Z,55.60
2023-09-24T20:38:26.296Z,55.60
2023-09-24T20:41:03.505Z,55.60
2023-09-24T20:43:32.918Z,55.60
2023-09-24T20:46:03.205Z,55.60
2023-09-24T20:48:31.217Z,55.60
2023-09-24T20:50:59.252Z,55.60
2023-09-24T20:53:27.333Z,55.60
2023-09-24T20:55:55.518Z,55.60
2023-09-24T20:58:23.638Z,55.60
2023-09-24T21:00:54.069Z,55.60
2023-09-24T21:03:22.065Z,55.60
2023-09-24T21:05:50.321Z,55.60
2023-09-24T21:08:18.300Z,55.50
2023-09-24T21:10:46.393Z,55.50
2023-09-24T21:13:14.428Z,55.60
2023-09-24T21:15:42.397Z,55.50
2023-09-24T21:18:11.794Z,55.50
2023-09-24T21:20:39.766Z,55.50
2023-09-24T21:23:08.509Z,55.50
2023-09-24T21:25:36.476Z,55.50
2023-09-24T21:28:04.958Z,55.50
2023-09-24T21:30:32.981Z,55.50
2023-09-24T21:33:01.158Z,55.50
2023-09-24T21:35:30.883Z,55.50
2023-09-24T21:37:58.782Z,55.50
2023-09-24T21:40:26.690Z,55.50
2023-09-24T21:42:54.591Z,55.50
2023-09-24T21:45:22.564Z,55.50
2023-09-24T21:47:50.538Z,55.50
2023-09-24T21:50:18.671Z,55.50
2023-09-24T21:52:48.060Z,55.50
2023-09-24T21:55:16.114Z,55.50
2023-09-24T21:57:44.182Z,55.50
2023-09-24T22:00:19.853Z,55.50
2023-09-24T22:02:48.167Z,55.50
2023-09-24T22:05:17.749Z,55.50
2023-09-24T22:07:48.519Z,55.50
2023-09-24T22:10:18.072Z,55.50
2023-09-24T22:12:46.156Z,55.50
2023-09-24T22:15:14.463Z,55.50
2023-09-24T22:17:42.753Z,55.40
2023-09-24T22:20:11.888Z,55.40
2023-09-24T22:22:39.787Z,55.50
2023-09-24T22:25:13.258Z,55.40
2023-09-24T22:27:42.120Z,55.50
2023-09-24T22:30:11.486Z,55.50
2023-09-24T22:32:40.291Z,55.40
2023-09-24T22:35:09.209Z,55.40
2023-09-24T22:37:37.145Z,55.50
2023-09-24T22:40:08.360Z,55.50
2023-09-24T22:42:38.115Z,55.50
2023-09-24T22:45:07.023Z,55.40
2023-09-24T22:47:35.494Z,55.40
2023-09-24T22:50:03.437Z,55.40
2023-09-24T22:52:32.786Z,55.40
2023-09-24T22:55:00.723Z,55.40
2023-09-24T22:57:28.895Z,55.30
2023-09-24T22:59:58.188Z,55.30
2023-09-24T23:02:26.420Z,55.30
2023-09-24T23:04:54.982Z,55.40
2023-09-24T23:07:22.908Z,55.30
2023-09-24T23:09:50.955Z,55.30
2023-09-24T23:12:18.950Z,55.40
2023-09-24T23:14:47.011Z,55.40
2023-09-24T23:17:16.264Z,55.30
2023-09-24T23:19:44.340Z,55.30
2023-09-24T23:22:12.307Z,55.30
2023-09-24T23:24:40.261Z,55.30
2023-09-24T23:27:08.484Z,55.40
2023-09-24T23:29:37.781Z,56.00
2023-09-24T23:32:05.949Z,55.40
2023-09-24T23:34:35.381Z,55.30
2023-09-24T23:37:03.320Z,55.30
2023-09-24T23:39:31.991Z,55.40
2023-09-24T23:42:00.415Z,55.40
2023-09-24T23:44:29.126Z,55.30
2023-09-24T23:46:57.464Z,55.40
2023-09-24T23:49:26.417Z,55.30
2023-09-24T23:51:55.813Z,55.40
2023-09-24T23:54:23.808Z,55.30
2023-09-24T23:56:51.737Z,55.30
2023-09-24T23:59:19.651Z,55.30
